Genua — IIYU — position and weather

sailwx.info

Track history (hours):
 
Tides and Currents Weather Stations Pressure Air Temp Water Temp Dewpoint Dewpoint Depression Visibility Wind Speed Wind Dir Waves Ship Positions

Genua

Last reported at 2014-Dec-22 20:33 UTC. Time now 2014-Dec-22 21:23 UTC.
Position N 44°25' E 008°55'.

; draft 6 m.

Type: Tug. MMSI: 247204000.

Date/timePositionNaut miles runAvg speedWind from/ knotsBaromVisibWave heightAir tempDewpointWater temp
2014-Dec-22 20:33N 44°25' E 008°55'0 0.0
2014-Dec-22 19:33N 44°25' E 008°55'0 0.0
2014-Dec-22 18:33N 44°25' E 008°55'0 0.0
2014-Dec-22 17:33N 44°25' E 008°55'0 0.0
2014-Dec-22 16:33N 44°25' E 008°55'0 0.0
2014-Dec-22 15:33N 44°25' E 008°55'0 0.0
2014-Dec-22 14:32N 44°25' E 008°55'0 0.0
2014-Dec-22 13:33N 44°25' E 008°55'0 0.0
2014-Dec-22 12:33N 44°25' E 008°55'0 0.0
2014-Dec-22 11:33N 44°25' E 008°55'0 0.0
2014-Dec-22 10:33N 44°25' E 008°55'0 0.0
2014-Dec-22 09:33N 44°25' E 008°55'0 0.0
2014-Dec-22 08:33N 44°25' E 008°55'  
2014-Dec-19 13:32N 44°25' E 008°55'0 0.0
2014-Dec-19 12:33N 44°25' E 008°55'0 0.0
2014-Dec-19 10:33N 44°25' E 008°55'0 0.0
2014-Dec-19 09:32N 44°25' E 008°55'0 0.0
2014-Dec-19 08:33N 44°25' E 008°55'0 0.0
2014-Dec-19 07:33N 44°25' E 008°55'0 0.0
2014-Dec-19 06:33N 44°25' E 008°55'0 0.0
2014-Dec-19 05:32N 44°25' E 008°55'0 0.0
2014-Dec-19 04:33N 44°25' E 008°55'0 0.0
2014-Dec-19 03:33N 44°25' E 008°55'0 0.0
2014-Dec-19 02:33N 44°25' E 008°55'0 0.0
2014-Dec-19 01:34N 44°25' E 008°55'0 0.0
2014-Dec-19 00:33N 44°25' E 008°55'0 0.0
2014-Dec-18 23:33N 44°25' E 008°55'0 0.0
2014-Dec-18 22:32N 44°25' E 008°55'0 0.0
2014-Dec-18 21:33N 44°25' E 008°55'0 0.0
2014-Dec-18 20:32N 44°25' E 008°55'0 0.0
2014-Dec-18 19:33N 44°25' E 008°55'0 0.0
2014-Dec-18 18:33N 44°25' E 008°55'0 0.0
2014-Dec-18 17:33N 44°25' E 008°55'0 0.0
2014-Dec-18 16:33N 44°25' E 008°55'0 0.0
2014-Dec-18 15:33N 44°25' E 008°55'0 0.0
2014-Dec-18 14:33N 44°25' E 008°55'0 0.0
2014-Dec-18 13:33N 44°25' E 008°55'0 0.0
2014-Dec-18 12:33N 44°25' E 008°55'7 7.1
2014-Dec-18 11:33N 44°21' E 009°04'1010.3
2014-Dec-18 10:33N 44°15' E 009°16'1110.7
2014-Dec-18 09:33N 44°09' E 009°28'1110.8
2014-Dec-18 08:34N 44°04' E 009°41'8 8.2
2014-Dec-18 07:34N 44°03' E 009°52'2 2.0
2014-Dec-18 06:33N 44°04' E 009°51'2 2.4
2014-Dec-18 05:33N 44°03' E 009°54'2 2.5
2014-Dec-18 04:33N 44°00' E 009°54'2 1.8
2014-Dec-18 03:33N 43°60' E 009°52'2 2.5
2014-Dec-18 02:33N 43°59' E 009°49'3 3.3
2014-Dec-18 01:34N 44°01' E 009°45'3 3.1
2014-Dec-18 00:34N 44°03' E 009°42'3 3.3
2014-Dec-17 23:33N 44°04' E 009°38'3 3.2
2014-Dec-17 22:34N 44°06' E 009°34'3 3.1
2014-Dec-17 21:33N 44°08' E 009°30'3 3.1
2014-Dec-17 20:34N 44°10' E 009°27'3 3.0
2014-Dec-17 19:34N 44°12' E 009°24'2 2.4
2014-Dec-17 18:33N 44°14' E 009°24'1 0.1
2014-Dec-17 05:32N 44°15' E 009°23'1 0.9
2014-Dec-17 04:33N 44°14' E 009°23'1 1.3
2014-Dec-17 03:33N 44°13' E 009°22'1 1.4
2014-Dec-17 02:33N 44°12' E 009°21'1 1.1
2014-Dec-17 01:33N 44°11' E 009°20'2 1.5
2014-Dec-17 00:34N 44°11' E 009°18'1 0.9
2014-Dec-16 23:33N 44°11' E 009°19'2 2.1
2014-Dec-16 22:33N 44°13' E 009°18'3 2.7
2014-Dec-16 21:33N 44°12' E 009°22'3 2.7
2014-Dec-16 20:34N 44°11' E 009°25'1 0.6
2014-Dec-16 19:33N 44°11' E 009°26'1 0.9
2014-Dec-16 18:33N 44°10' E 009°26'3 2.6
2014-Dec-16 17:34N 44°08' E 009°28'4 3.8
2014-Dec-16 16:34N 44°06' E 009°32'4 3.9
2014-Dec-16 15:34N 44°05' E 009°37'4 4.0
2014-Dec-16 14:33N 44°03' E 009°43'4 4.3
2014-Dec-16 13:33N 44°01' E 009°48'3 3.2
2014-Dec-16 12:33N 44°00' E 009°52'3 3.0
2014-Dec-16 11:33N 44°03' E 009°52'2 1.5
2014-Dec-16 10:33N 44°05' E 009°52'0 0.3
2014-Dec-16 09:33N 44°05' E 009°53'0 0.0
2014-Dec-16 08:33N 44°05' E 009°53'4 4.3
2014-Dec-16 07:33N 44°01' E 009°52'9 8.8
2014-Dec-16 06:33N 44°04' E 009°40'9 8.8
2014-Dec-16 05:33N 44°08' E 009°29'9 8.5
2014-Dec-16 04:32N 44°12' E 009°19'9 8.7
2014-Dec-16 03:32N 44°17' E 009°09'9 8.8
2014-Dec-16 02:33N 44°22' E 008°59'4 2.5
2014-Dec-16 01:05N 44°25' E 008°55'0 0.0
2014-Dec-15 23:17N 44°25' E 008°55'0 0.0
2014-Dec-15 22:26N 44°25' E 008°55'0 0.0
2014-Dec-15 21:26N 44°25' E 008°55'0 0.0
2014-Dec-15 20:32N 44°25' E 008°55'0 0.0
2014-Dec-15 19:17N 44°25' E 008°55'0 0.0
2014-Dec-15 18:17N 44°25' E 008°55'0 0.0
2014-Dec-15 17:08N 44°25' E 008°55'0 0.0
2014-Dec-15 16:26N 44°25' E 008°55'0 0.0
2014-Dec-15 15:32N 44°25' E 008°55'0 0.0
2014-Dec-15 14:09N 44°25' E 008°55'0 0.0
2014-Dec-15 13:27N 44°25' E 008°55'0 0.0
2014-Dec-15 12:09N 44°25' E 008°55'0 0.0
2014-Dec-15 11:27N 44°25' E 008°55'0 0.0
2014-Dec-15 10:21N 44°25' E 008°55'0 0.0
2014-Dec-15 09:15N 44°25' E 008°55'0 0.0
2014-Dec-15 08:05N 44°25' E 008°55'0 0.1
2014-Dec-15 07:32N 44°25' E 008°55'0 0.0
2014-Dec-15 06:26N 44°25' E 008°55'0 0.0
2014-Dec-14 14:12N 44°25' E 008°55'0 0.0
2014-Dec-14 13:33N 44°25' E 008°55'4 3.2
2014-Dec-14 12:28N 44°25' E 008°50'0 0.3
2014-Dec-14 10:33N 44°25' E 008°50'2 2.4
2014-Dec-14 09:33N 44°25' E 008°46'0 0.0
2014-Dec-13 16:19N 44°25' E 008°47'0 0.4
2014-Dec-13 15:33N 44°25' E 008°46'  
Track history (hours):
 
Tides and Currents Weather Stations Pressure Air Temp Water Temp Dewpoint Dewpoint Depression Visibility Wind Speed Wind Dir Waves Ship Positions

Genua

Last reported at 2014-Dec-22 20:33 UTC. Time now 2014-Dec-22 21:23 UTC.
Position N 44°25' E 008°55'.

; draft 6 m.

Type: Tug. MMSI: 247204000.

Date/timePositionNaut miles runAvg speedWind from/ knotsBaromVisibWave heightAir tempDewpointWater temp
2014-Dec-22 20:33N 44°25' E 008°55'0 0.0
2014-Dec-22 19:33N 44°25' E 008°55'0 0.0
2014-Dec-22 18:33N 44°25' E 008°55'0 0.0
2014-Dec-22 17:33N 44°25' E 008°55'0 0.0
2014-Dec-22 16:33N 44°25' E 008°55'0 0.0
2014-Dec-22 15:33N 44°25' E 008°55'0 0.0
2014-Dec-22 14:32N 44°25' E 008°55'0 0.0
2014-Dec-22 13:33N 44°25' E 008°55'0 0.0
2014-Dec-22 12:33N 44°25' E 008°55'0 0.0
2014-Dec-22 11:33N 44°25' E 008°55'0 0.0
2014-Dec-22 10:33N 44°25' E 008°55'0 0.0
2014-Dec-22 09:33N 44°25' E 008°55'0 0.0
2014-Dec-22 08:33N 44°25' E 008°55'  
2014-Dec-19 13:32N 44°25' E 008°55'0 0.0
2014-Dec-19 12:33N 44°25' E 008°55'0 0.0
2014-Dec-19 10:33N 44°25' E 008°55'0 0.0
2014-Dec-19 09:32N 44°25' E 008°55'0 0.0
2014-Dec-19 08:33N 44°25' E 008°55'0 0.0
2014-Dec-19 07:33N 44°25' E 008°55'0 0.0
2014-Dec-19 06:33N 44°25' E 008°55'0 0.0
2014-Dec-19 05:32N 44°25' E 008°55'0 0.0
2014-Dec-19 04:33N 44°25' E 008°55'0 0.0
2014-Dec-19 03:33N 44°25' E 008°55'0 0.0
2014-Dec-19 02:33N 44°25' E 008°55'0 0.0
2014-Dec-19 01:34N 44°25' E 008°55'0 0.0
2014-Dec-19 00:33N 44°25' E 008°55'0 0.0
2014-Dec-18 23:33N 44°25' E 008°55'0 0.0
2014-Dec-18 22:32N 44°25' E 008°55'0 0.0
2014-Dec-18 21:33N 44°25' E 008°55'0 0.0
2014-Dec-18 20:32N 44°25' E 008°55'0 0.0
2014-Dec-18 19:33N 44°25' E 008°55'0 0.0
2014-Dec-18 18:33N 44°25' E 008°55'0 0.0
2014-Dec-18 17:33N 44°25' E 008°55'0 0.0
2014-Dec-18 16:33N 44°25' E 008°55'0 0.0
2014-Dec-18 15:33N 44°25' E 008°55'0 0.0
2014-Dec-18 14:33N 44°25' E 008°55'0 0.0
2014-Dec-18 13:33N 44°25' E 008°55'0 0.0
2014-Dec-18 12:33N 44°25' E 008°55'7 7.1
2014-Dec-18 11:33N 44°21' E 009°04'1010.3
2014-Dec-18 10:33N 44°15' E 009°16'1110.7
2014-Dec-18 09:33N 44°09' E 009°28'1110.8
2014-Dec-18 08:34N 44°04' E 009°41'8 8.2
2014-Dec-18 07:34N 44°03' E 009°52'2 2.0
2014-Dec-18 06:33N 44°04' E 009°51'2 2.4
2014-Dec-18 05:33N 44°03' E 009°54'2 2.5
2014-Dec-18 04:33N 44°00' E 009°54'2 1.8
2014-Dec-18 03:33N 43°60' E 009°52'2 2.5
2014-Dec-18 02:33N 43°59' E 009°49'3 3.3
2014-Dec-18 01:34N 44°01' E 009°45'3 3.1
2014-Dec-18 00:34N 44°03' E 009°42'3 3.3
2014-Dec-17 23:33N 44°04' E 009°38'3 3.2
2014-Dec-17 22:34N 44°06' E 009°34'3 3.1
2014-Dec-17 21:33N 44°08' E 009°30'3 3.1
2014-Dec-17 20:34N 44°10' E 009°27'3 3.0
2014-Dec-17 19:34N 44°12' E 009°24'2 2.4
2014-Dec-17 18:33N 44°14' E 009°24'1 0.1
2014-Dec-17 05:32N 44°15' E 009°23'1 0.9
2014-Dec-17 04:33N 44°14' E 009°23'1 1.3
2014-Dec-17 03:33N 44°13' E 009°22'1 1.4
2014-Dec-17 02:33N 44°12' E 009°21'1 1.1
2014-Dec-17 01:33N 44°11' E 009°20'2 1.5
2014-Dec-17 00:34N 44°11' E 009°18'1 0.9
2014-Dec-16 23:33N 44°11' E 009°19'2 2.1
2014-Dec-16 22:33N 44°13' E 009°18'3 2.7
2014-Dec-16 21:33N 44°12' E 009°22'3 2.7
2014-Dec-16 20:34N 44°11' E 009°25'1 0.6
2014-Dec-16 19:33N 44°11' E 009°26'1 0.9
2014-Dec-16 18:33N 44°10' E 009°26'3 2.6
2014-Dec-16 17:34N 44°08' E 009°28'4 3.8
2014-Dec-16 16:34N 44°06' E 009°32'4 3.9
2014-Dec-16 15:34N 44°05' E 009°37'4 4.0
2014-Dec-16 14:33N 44°03' E 009°43'4 4.3
2014-Dec-16 13:33N 44°01' E 009°48'3 3.2
2014-Dec-16 12:33N 44°00' E 009°52'3 3.0
2014-Dec-16 11:33N 44°03' E 009°52'2 1.5
2014-Dec-16 10:33N 44°05' E 009°52'0 0.3
2014-Dec-16 09:33N 44°05' E 009°53'0 0.0
2014-Dec-16 08:33N 44°05' E 009°53'4 4.3
2014-Dec-16 07:33N 44°01' E 009°52'9 8.8
2014-Dec-16 06:33N 44°04' E 009°40'9 8.8
2014-Dec-16 05:33N 44°08' E 009°29'9 8.5
2014-Dec-16 04:32N 44°12' E 009°19'9 8.7
2014-Dec-16 03:32N 44°17' E 009°09'9 8.8
2014-Dec-16 02:33N 44°22' E 008°59'4 2.5
2014-Dec-16 01:05N 44°25' E 008°55'0 0.0
2014-Dec-15 23:17N 44°25' E 008°55'0 0.0
2014-Dec-15 22:26N 44°25' E 008°55'0 0.0
2014-Dec-15 21:26N 44°25' E 008°55'0 0.0
2014-Dec-15 20:32N 44°25' E 008°55'0 0.0
2014-Dec-15 19:17N 44°25' E 008°55'0 0.0
2014-Dec-15 18:17N 44°25' E 008°55'0 0.0
2014-Dec-15 17:08N 44°25' E 008°55'0 0.0
2014-Dec-15 16:26N 44°25' E 008°55'0 0.0
2014-Dec-15 15:32N 44°25' E 008°55'0 0.0
2014-Dec-15 14:09N 44°25' E 008°55'0 0.0
2014-Dec-15 13:27N 44°25' E 008°55'0 0.0
2014-Dec-15 12:09N 44°25' E 008°55'0 0.0
2014-Dec-15 11:27N 44°25' E 008°55'0 0.0
2014-Dec-15 10:21N 44°25' E 008°55'0 0.0
2014-Dec-15 09:15N 44°25' E 008°55'0 0.0
2014-Dec-15 08:05N 44°25' E 008°55'0 0.1
2014-Dec-15 07:32N 44°25' E 008°55'0 0.0
2014-Dec-15 06:26N 44°25' E 008°55'0 0.0
2014-Dec-14 14:12N 44°25' E 008°55'0 0.0
2014-Dec-14 13:33N 44°25' E 008°55'4 3.2
2014-Dec-14 12:28N 44°25' E 008°50'0 0.3
2014-Dec-14 10:33N 44°25' E 008°50'2 2.4
2014-Dec-14 09:33N 44°25' E 008°46'0 0.0
2014-Dec-13 16:19N 44°25' E 008°47'0 0.4
2014-Dec-13 15:33N 44°25' E 008°46'  

Dump ship's entire track history